Tipton Airport Fort Meade(Odenton) US
ICAO: KFME
IATA: FME
Category: Medium
Scheduled Services: No

Elevation: 150 ft
TransAlt. 18000 ft.

Airport Communications:
POTOMAC APP DEP:119.7
AWOS 3:123.925
CTAF/UNICOM:123.05

KFME Zoom In..

Runways:

(A) RW 10 length 3000 ft width 75 ft
---- / hdg 104

(B) RW 28 length 3000 ft width 75 ft
---- / hdg 284

Location; KFME
Day. 23 / Time. 09.57 Zulu
* Altimeter: 29.92
* Temperature: 23° c. 73.4°f.
* Wind from: 120° Speed 06 kn.
Dewpoint: 22° c.
Visibility: 10 Statute Miles.
Clouds: Scattered 1500 ft.

KFME 230957Z AUTO 12006KT 10SM SCT015 23/22 A2992 RMK AO1


Wind From 120°
Speed 06 kn.

 
 
jpsmedia.com for Web Design worldairports.se 2018   terms of use